Time;durP1;ratioP1;P1;durP2;ratioP2;P2;SDS_P1;SDS_P2;PMS_P1;PMS_P2;Temp;Humidity;BMP_temperature;BMP_pressure;BME280_temperature;BME280_humidity;BME280_pressure;Samples;Min_cycle;Max_cycle;Signal;HPM_P1;HPM_P2
2022/06/24 00:02:02;;;;;;;10.00;9.02;;;21.50;99.90;;;;;;5045443;28;20037;-51
2022/06/24 00:04:30;;;;;;;11.63;9.95;;;21.30;99.90;;;;;;5004211;28;20034;-49
2022/06/24 00:06:57;;;;;;;12.55;9.95;;;21.20;99.90;;;;;;5050890;28;20048;-51
2022/06/24 00:09:27;;;;;;;13.52;9.43;;;21.10;99.90;;;;;;5090613;28;20069;-51
2022/06/24 00:12:11;;;;;;;10.75;9.35;;;21.10;99.90;;;;;;5108254;28;20058;-52
2022/06/24 00:14:39;;;;;;;13.93;9.13;;;21.10;99.90;;;;;;5105706;28;20068;-50
2022/06/24 00:17:09;;;;;;;10.38;9.32;;;20.90;99.90;;;;;;5109766;28;20019;-55
2022/06/24 00:19:55;;;;;;;13.63;9.05;;;20.70;99.90;;;;;;5105760;28;20063;-51
2022/06/24 00:22:21;;;;;;;10.18;9.18;;;20.90;99.90;;;;;;5104772;28;20478;-48
2022/06/24 00:24:48;;;;;;;10.55;9.55;;;21.10;99.90;;;;;;5104010;28;20122;-50
2022/06/24 00:27:19;;;;;;;10.18;9.18;;;21.30;99.90;;;;;;5105004;28;20039;-48
2022/06/24 00:29:44;;;;;;;11.17;9.13;;;21.50;99.90;;;;;;5094056;28;20069;-52
2022/06/24 00:32:10;;;;;;;10.55;9.00;;;21.50;99.90;;;;;;5104144;28;20816;-54
2022/06/24 00:34:40;;;;;;;11.50;9.02;;;21.60;99.90;;;;;;5101615;28;20109;-52
2022/06/24 00:37:23;;;;;;;11.70;8.13;;;21.70;99.90;;;;;;5108332;28;20127;-48
2022/06/24 00:39:50;;;;;;;13.48;9.13;;;21.60;99.90;;;;;;5068469;28;20036;-49
2022/06/24 00:42:18;;;;;;;10.02;9.02;;;21.70;99.90;;;;;;5097899;28;20032;-50
2022/06/24 00:44:53;;;;;;;11.63;8.73;;;21.80;99.90;;;;;;5108701;28;20069;-48
2022/06/24 00:47:20;;;;;;;10.63;8.50;;;21.80;99.90;;;;;;5107535;28;20028;-54
2022/06/24 00:49:47;;;;;;;12.77;9.10;;;21.80;99.90;;;;;;5116036;28;20032;-48
2022/06/24 00:52:14;;;;;;;10.50;8.85;;;21.90;99.90;;;;;;5103407;28;20035;-47
2022/06/24 00:54:43;;;;;;;10.88;8.88;;;21.70;99.90;;;;;;5091059;28;20059;-53
2022/06/24 00:57:10;;;;;;;12.45;9.10;;;21.60;99.90;;;;;;5078476;28;20046;-50
2022/06/24 00:59:36;;;;;;;11.48;8.75;;;21.60;99.90;;;;;;5112451;28;20475;-49
2022/06/24 01:02:06;;;;;;;15.88;9.27;;;21.50;99.90;;;;;;5046150;28;20100;-54
2022/06/24 01:04:34;;;;;;;10.27;8.65;;;21.50;99.90;;;;;;5109410;28;20039;-50
2022/06/24 01:07:00;;;;;;;10.43;8.50;;;21.50;99.90;;;;;;5109118;28;20035;-49
2022/06/24 01:09:26;;;;;;;12.55;9.10;;;21.60;99.90;;;;;;5105933;28;20664;-51
2022/06/24 01:11:53;;;;;;;9.65;8.57;;;21.60;99.90;;;;;;5107367;28;20111;-53
2022/06/24 01:14:19;;;;;;;15.50;9.32;;;21.50;99.90;;;;;;5103253;28;20028;-53
2022/06/24 01:16:45;;;;;;;10.88;9.45;;;21.50;99.90;;;;;;5112131;28;20027;-52
2022/06/24 01:19:13;;;;;;;10.93;8.95;;;21.40;99.90;;;;;;5104854;28;20034;-57
2022/06/24 01:21:47;;;;;;;10.05;8.60;;;21.60;99.90;;;;;;5110750;28;20070;-52
2022/06/24 01:24:16;;;;;;;11.55;8.77;;;21.60;99.90;;;;;;5079639;28;20043;-50
2022/06/24 01:26:54;;;;;;;14.65;9.68;;;21.60;99.90;;;;;;5074433;28;20043;-52
2022/06/24 01:29:21;;;;;;;10.23;9.20;;;21.50;99.90;;;;;;5107316;28;20039;-49
2022/06/24 01:31:48;;;;;;;11.57;8.35;;;21.40;99.90;;;;;;5108657;28;20051;-57
2022/06/24 01:34:19;;;;;;;13.77;9.27;;;21.40;99.90;;;;;;5110700;28;20019;-55
2022/06/24 01:36:45;;;;;;;11.38;9.90;;;21.40;99.90;;;;;;5114942;28;20038;-54
2022/06/24 01:39:11;;;;;;;11.35;9.15;;;21.20;99.90;;;;;;5103772;28;20107;-50
2022/06/24 01:41:37;;;;;;;15.60;10.10;;;21.20;99.90;;;;;;5108443;28;20051;-48
2022/06/24 01:44:03;;;;;;;12.82;8.50;;;21.40;99.90;;;;;;5107338;28;20032;-49
2022/06/24 01:46:30;;;;;;;11.75;8.18;;;21.60;99.90;;;;;;5114581;28;20022;-51
2022/06/24 01:48:56;;;;;;;10.20;9.00;;;21.70;99.90;;;;;;5111743;28;20423;-55
2022/06/24 01:51:23;;;;;;;14.40;8.82;;;21.80;99.90;;;;;;5095905;28;20059;-55
2022/06/24 01:53:49;;;;;;;10.75;8.52;;;21.80;99.90;;;;;;5100623;28;20059;-53
2022/06/24 01:56:15;;;;;;;8.73;7.85;;;21.80;99.90;;;;;;5104192;28;20538;-55
2022/06/24 01:58:41;;;;;;;13.68;9.00;;;21.60;99.90;;;;;;5054267;28;20044;-50
2022/06/24 02:01:07;;;;;;;11.52;8.35;;;21.50;99.90;;;;;;5064051;28;20040;-50
2022/06/24 02:03:34;;;;;;;8.77;7.88;;;21.30;99.90;;;;;;5068043;28;20035;-48
2022/06/24 02:06:05;;;;;;;9.18;7.60;;;21.20;99.90;;;;;;5064436;28;20119;-54
2022/06/24 02:08:31;;;;;;;8.68;7.78;;;21.20;99.90;;;;;;5066946;28;20037;-50
2022/06/24 02:13:45;;;;;;;9.77;7.70;;;21.40;99.90;;;;;;5066612;28;20632;-54
2022/06/24 02:16:11;;;;;;;8.48;7.03;;;21.40;99.90;;;;;;5063705;28;20098;-53
2022/06/24 02:18:37;;;;;;;10.93;7.70;;;21.40;99.90;;;;;;5060982;28;20539;-49
2022/06/24 02:21:03;;;;;;;11.35;7.47;;;21.40;99.90;;;;;;5052399;28;20123;-49
2022/06/24 02:23:30;;;;;;;18.05;8.18;;;21.30;99.90;;;;;;5064523;28;20036;-49
2022/06/24 02:25:56;;;;;;;9.63;7.10;;;21.20;99.90;;;;;;5063967;28;20040;-50
2022/06/24 02:28:23;;;;;;;9.07;7.03;;;21.10;99.90;;;;;;5068302;28;20041;-50
2022/06/24 02:30:53;;;;;;;8.63;6.68;;;20.90;99.90;;;;;;5106157;28;20063;-51
2022/06/24 02:33:20;;;;;;;8.15;6.63;;;21.00;99.90;;;;;;5103794;28;20028;-50
2022/06/24 02:35:45;;;;;;;11.07;7.15;;;20.90;99.90;;;;;;5110568;28;20036;-51
2022/06/24 02:38:11;;;;;;;11.80;6.63;;;20.80;99.90;;;;;;5091915;28;20079;-49
2022/06/24 02:40:45;;;;;;;7.82;6.30;;;20.90;99.90;;;;;;5106525;28;20031;-53
2022/06/24 02:43:39;;;;;;;9.80;6.95;;;20.80;99.90;;;;;;5107889;28;20100;-49
2022/06/24 02:46:13;;;;;;;7.95;6.53;;;20.80;99.90;;;;;;5029561;28;20048;-55
2022/06/24 02:48:41;;;;;;;11.93;7.40;;;20.60;99.90;;;;;;5034732;28;20041;-53
2022/06/24 02:51:09;;;;;;;8.77;6.80;;;20.60;99.90;;;;;;5029683;28;20037;-50
2022/06/24 02:53:36;;;;;;;10.25;6.25;;;20.60;99.90;;;;;;5034508;28;20025;-47
2022/06/24 02:56:04;;;;;;;7.88;6.32;;;20.70;99.90;;;;;;5036907;28;20021;-50
2022/06/24 02:58:31;;;;;;;9.65;6.57;;;20.50;99.90;;;;;;5034038;28;20116;-48
2022/06/24 03:00:57;;;;;;;9.73;6.68;;;20.50;99.90;;;;;;5033039;28;20033;-47
2022/06/24 03:03:23;;;;;;;9.55;7.13;;;20.40;99.90;;;;;;5035364;28;20079;-51
2022/06/24 03:05:50;;;;;;;10.52;6.43;;;20.50;99.90;;;;;;5026081;28;20087;-49
2022/06/24 03:08:18;;;;;;;11.75;6.47;;;20.60;99.90;;;;;;5015085;28;20040;-56
2022/06/24 03:10:45;;;;;;;13.93;7.00;;;20.70;99.90;;;;;;5000560;28;20444;-50
2022/06/24 03:13:11;;;;;;;8.50;7.00;;;20.50;99.90;;;;;;5027097;28;20120;-48
2022/06/24 03:15:38;;;;;;;12.38;8.02;;;20.30;99.90;;;;;;5032859;28;20062;-50
2022/06/24 03:18:04;;;;;;;7.15;6.45;;;20.10;99.90;;;;;;5033524;28;20483;-53
2022/06/24 03:20:30;;;;;;;13.02;7.03;;;20.30;99.90;;;;;;5036451;28;20461;-50
2022/06/24 03:22:56;;;;;;;7.35;6.57;;;20.50;99.90;;;;;;5033390;28;20043;-53
2022/06/24 03:25:21;;;;;;;7.63;6.80;;;20.60;99.90;;;;;;5103023;28;20017;-47
2022/06/24 03:27:47;;;;;;;11.35;7.18;;;20.60;99.90;;;;;;5078592;28;20136;-47
2022/06/24 03:30:14;;;;;;;10.88;6.90;;;20.80;99.90;;;;;;5071221;28;20131;-48
2022/06/24 03:32:41;;;;;;;9.23;6.35;;;20.90;99.90;;;;;;5102059;28;20040;-51
2022/06/24 03:35:08;;;;;;;9.05;6.75;;;20.80;99.90;;;;;;5104140;28;20039;-50
2022/06/24 03:37:34;;;;;;;13.43;8.18;;;20.50;99.90;;;;;;5075891;28;20375;-52
2022/06/24 03:40:00;;;;;;;14.43;7.63;;;20.40;99.90;;;;;;5106395;28;20039;-50
2022/06/24 03:42:27;;;;;;;21.52;9.65;;;;;;;;;;5095967;28;20027;-51
2022/06/24 03:44:53;;;;;;;10.30;7.45;;;19.80;99.90;;;;;;5108632;28;20402;-52
2022/06/24 03:47:19;;;;;;;11.80;7.47;;;19.50;99.90;;;;;;5101367;28;20077;-53
2022/06/24 03:49:45;;;;;;;14.38;7.78;;;19.30;99.90;;;;;;5112748;28;20027;-52
2022/06/24 03:52:11;;;;;;;9.68;7.22;;;19.30;99.90;;;;;;5097978;28;20099;-52
2022/06/24 03:54:37;;;;;;;15.82;8.25;;;19.50;99.90;;;;;;5100612;28;20432;-48
2022/06/24 03:57:03;;;;;;;14.48;7.97;;;19.80;99.90;;;;;;5085302;28;20040;-48
2022/06/24 03:59:29;;;;;;;11.25;7.30;;;19.70;99.90;;;;;;5105340;28;20043;-53
2022/06/24 04:01:55;;;;;;;12.90;7.85;;;19.70;99.90;;;;;;5108725;28;20371;-47
2022/06/24 04:04:21;;;;;;;11.82;7.43;;;19.60;99.90;;;;;;5099758;28;20032;-47
2022/06/24 04:06:47;;;;;;;12.05;7.05;;;19.50;99.90;;;;;;5106257;28;20036;-49
2022/06/24 04:09:13;;;;;;;14.20;7.55;;;19.50;99.90;;;;;;5107060;28;20111;-55
2022/06/24 04:11:39;;;;;;;11.27;6.88;;;;;;;;;;5099218;28;20035;-56
2022/06/24 04:14:04;;;;;;;10.68;6.85;;;19.70;99.90;;;;;;5107192;28;20473;-46
2022/06/24 04:16:30;;;;;;;11.85;7.22;;;19.70;99.90;;;;;;5102187;28;20028;-52
2022/06/24 04:18:56;;;;;;;8.77;6.35;;;19.50;99.90;;;;;;5060537;28;20123;-49
2022/06/24 04:21:22;;;;;;;9.30;6.30;;;19.60;99.90;;;;;;5093370;28;20489;-51
2022/06/24 04:23:51;;;;;;;8.55;6.70;;;19.80;99.90;;;;;;5058331;28;20090;-54
2022/06/24 04:26:18;;;;;;;11.95;6.93;;;19.90;99.90;;;;;;5093389;28;20058;-55
2022/06/24 04:28:45;;;;;;;9.00;7.35;;;20.20;99.90;;;;;;5093087;28;20052;-49
2022/06/24 04:31:11;;;;;;;9.35;8.07;;;19.90;99.90;;;;;;5093247;28;20036;-51
2022/06/24 04:33:38;;;;;;;11.95;6.97;;;20.00;99.90;;;;;;5093801;28;20028;-49
2022/06/24 04:36:14;;;;;;;9.98;7.65;;;19.80;99.90;;;;;;5093428;28;20102;-49
2022/06/24 04:38:41;;;;;;;10.23;7.90;;;20.10;99.90;;;;;;5041085;28;20043;-49
2022/06/24 04:41:16;;;;;;;10.65;7.78;;;20.30;99.90;;;;;;5093390;28;20103;-48
2022/06/24 04:43:42;;;;;;;8.60;7.63;;;20.60;99.90;;;;;;5106800;28;20036;-58
2022/06/24 04:46:08;;;;;;;11.30;8.15;;;20.60;99.90;;;;;;5060569;28;20027;-55
2022/06/24 04:48:35;;;;;;;11.15;8.77;;;20.70;99.90;;;;;;5109765;28;20031;-50
2022/06/24 04:51:02;;;;;;;13.68;9.00;;;20.30;99.90;;;;;;5112786;28;20102;-53
2022/06/24 04:53:29;;;;;;;10.73;7.80;;;20.10;99.90;;;;;;5042628;28;20036;-49
2022/06/24 04:55:55;;;;;;;8.88;7.93;;;20.00;99.90;;;;;;5093907;28;20045;-58
2022/06/24 04:58:20;;;;;;;11.15;8.48;;;20.20;99.90;;;;;;5108819;28;20039;-53
2022/06/24 05:00:46;;;;;;;10.10;8.00;;;20.40;99.90;;;;;;5068437;28;20035;-48
2022/06/24 05:03:12;;;;;;;10.52;8.77;;;20.50;99.90;;;;;;5039131;28;20040;-51
2022/06/24 05:05:38;;;;;;;11.23;8.98;;;20.60;99.90;;;;;;5107771;28;20442;-47
2022/06/24 05:08:05;;;;;;;10.95;9.18;;;20.20;99.90;;;;;;5108330;28;20018;-52
2022/06/24 05:10:31;;;;;;;10.80;9.70;;;20.00;99.90;;;;;;5076384;28;20067;-50
2022/06/24 05:12:56;;;;;;;11.10;10.00;;;20.00;99.90;;;;;;5112133;28;20051;-52
2022/06/24 05:15:22;;;;;;;10.85;9.55;;;20.20;99.90;;;;;;5024878;28;20033;-50
2022/06/24 05:17:48;;;;;;;10.65;8.82;;;20.20;99.90;;;;;;5025633;28;20122;-51
2022/06/24 05:20:14;;;;;;;12.00;8.85;;;20.30;99.90;;;;;;5076714;28;20039;-50
2022/06/24 05:22:39;;;;;;;12.95;9.52;;;20.50;99.90;;;;;;5033333;28;20118;-50
2022/06/24 05:25:09;;;;;;;11.50;8.95;;;20.70;99.90;;;;;;5108374;28;20474;-49
2022/06/24 05:27:35;;;;;;;13.13;8.63;;;21.00;99.90;;;;;;5064925;28;20063;-49
2022/06/24 05:30:01;;;;;;;12.60;9.25;;;21.20;99.90;;;;;;5116363;28;20120;-48
2022/06/24 05:32:27;;;;;;;10.77;9.00;;;21.50;99.90;;;;;;5116258;28;20093;-51
2022/06/24 05:34:52;;;;;;;9.35;8.35;;;21.50;99.90;;;;;;5059585;28;20441;-51
2022/06/24 05:37:18;;;;;;;10.75;8.57;;;21.70;99.90;;;;;;5105769;28;20122;-53
2022/06/24 05:39:44;;;;;;;11.80;8.18;;;22.00;99.90;;;;;;5116246;28;20039;-50
2022/06/24 05:42:10;;;;;;;10.60;7.82;;;22.10;99.90;;;;;;5116465;28;20051;-51
2022/06/24 05:44:35;;;;;;;10.63;8.55;;;22.30;99.90;;;;;;5116761;28;20031;-48
2022/06/24 05:47:01;;;;;;;8.77;7.40;;;22.50;99.90;;;;;;5115692;28;20481;-53
2022/06/24 05:49:27;;;;;;;9.85;7.93;;;22.70;99.90;;;;;;5111200;28;20035;-49
2022/06/24 05:51:53;;;;;;;8.90;6.88;;;22.70;99.90;;;;;;5080103;28;20061;-47
2022/06/24 05:57:03;;;;;;;8.32;7.47;;;23.10;99.90;;;;;;5116862;28;20057;-52
2022/06/24 05:59:29;;;;;;;7.78;6.95;;;23.30;99.90;;;;;;5097224;28;20048;-47
2022/06/24 06:01:55;;;;;;;7.43;6.70;;;;;;;;;;5079345;28;20027;-48
2022/06/24 06:04:21;;;;;;;12.38;7.63;;;;;;;;;;5113519;28;20031;-47
2022/06/24 06:06:48;;;;;;;8.18;6.75;;;24.10;99.90;;;;;;5114621;28;20080;-51
2022/06/24 06:09:14;;;;;;;8.73;7.40;;;;;;;;;;5115072;28;20036;-49
2022/06/24 06:11:40;;;;;;;9.27;6.80;;;24.00;99.90;;;;;;5115404;28;20037;-51
2022/06/24 06:14:06;;;;;;;8.48;7.35;;;24.30;99.90;;;;;;5115905;28;20031;-50
2022/06/24 06:16:32;;;;;;;9.38;7.00;;;24.40;99.90;;;;;;5116025;28;20028;-52
2022/06/24 06:18:58;;;;;;;8.07;6.43;;;24.60;99.90;;;;;;5115809;28;20035;-49
2022/06/24 06:21:24;;;;;;;10.30;6.78;;;24.70;99.90;;;;;;5116054;28;20031;-53
2022/06/24 06:23:50;;;;;;;7.13;6.32;;;;;;;;;;5115913;28;20032;-51
2022/06/24 06:26:15;;;;;;;9.52;6.65;;;24.80;99.90;;;;;;5116120;28;20537;-51
2022/06/24 06:28:42;;;;;;;10.80;6.13;;;24.80;99.90;;;;;;5115715;28;20130;-48
2022/06/24 06:31:08;;;;;;;10.13;6.30;;;24.90;99.90;;;;;;5075540;28;20038;-49
2022/06/24 06:33:34;;;;;;;8.82;5.50;;;;;;;;;;5103331;28;20036;-51
2022/06/24 06:36:11;;;;;;;7.88;5.13;;;25.40;99.90;;;;;;5101667;28;20090;-49
2022/06/24 06:38:37;;;;;;;5.97;4.55;;;25.40;99.90;;;;;;5115433;28;20039;-48
2022/06/24 06:41:03;;;;;;;7.28;5.05;;;25.50;99.90;;;;;;5097290;28;20426;-53
2022/06/24 06:43:30;;;;;;;5.90;3.58;;;25.80;99.90;;;;;;5100974;28;20036;-51
2022/06/24 06:45:56;;;;;;;4.57;3.78;;;;;;;;;;5112745;28;20031;-51
2022/06/24 06:48:23;;;;;;;6.88;4.20;;;;;;;;;;5110899;28;20064;-50
2022/06/24 06:50:54;;;;;;;8.82;4.93;;;26.00;99.90;;;;;;5110611;28;20034;-48
2022/06/24 06:53:20;;;;;;;7.45;3.78;;;26.00;99.90;;;;;;5112880;28;20019;-52
2022/06/24 06:55:46;;;;;;;4.18;3.78;;;26.30;99.90;;;;;;5114720;28;20466;-51
2022/06/24 06:58:12;;;;;;;3.70;3.03;;;;;;;;;;5114907;28;20035;-54
2022/06/24 07:00:38;;;;;;;5.55;3.38;;;;;;;;;;5114449;28;20019;-52
2022/06/24 07:03:04;;;;;;;4.05;3.22;;;;;;;;;;5108250;28;20035;-50
2022/06/24 07:05:31;;;;;;;6.63;3.90;;;27.50;99.90;;;;;;5110743;28;20071;-53
2022/06/24 07:07:57;;;;;;;6.72;3.75;;;26.70;99.90;;;;;;5101133;28;20473;-50
2022/06/24 07:10:23;;;;;;;7.40;4.18;;;26.50;99.90;;;;;;5107772;28;20038;-49
2022/06/24 07:12:48;;;;;;;9.10;4.20;;;26.70;99.90;;;;;;5114390;28;20031;-53
2022/06/24 07:15:16;;;;;;;8.07;4.20;;;26.80;99.90;;;;;;5092167;28;20059;-48
2022/06/24 07:17:42;;;;;;;5.68;4.20;;;;;;;;;;5103890;28;20039;-53
2022/06/24 07:20:09;;;;;;;8.48;4.30;;;;;;;;;;5073587;28;20043;-47
2022/06/24 07:22:35;;;;;;;4.05;3.58;;;;;;;;;;5111320;28;20023;-54
2022/06/24 07:25:01;;;;;;;6.30;3.55;;;26.90;99.90;;;;;;5062033;28;20431;-53
2022/06/24 07:27:27;;;;;;;5.07;3.33;;;27.10;99.90;;;;;;5070968;28;20075;-54
2022/06/24 07:29:52;;;;;;;6.93;3.90;;;27.10;99.90;;;;;;5067809;28;20055;-54
2022/06/24 07:32:18;;;;;;;4.75;3.78;;;27.10;99.90;;;;;;5106896;28;20015;-55
2022/06/24 07:34:44;;;;;;;5.22;4.05;;;;;;;;;;5075531;28;20043;-51
2022/06/24 07:37:10;;;;;;;4.00;3.20;;;;;;;;;;5074328;28;20028;-50
2022/06/24 07:39:36;;;;;;;7.63;3.97;;;;;;;;;;5111352;28;20028;-51
2022/06/24 07:42:02;;;;;;;4.88;3.38;;;27.70;99.90;;;;;;5107617;28;20047;-54
2022/06/24 07:44:29;;;;;;;4.15;3.30;;;;;;;;;;5087834;28;20027;-50
2022/06/24 07:46:54;;;;;;;4.60;3.22;;;28.00;99.90;;;;;;5113983;28;20028;-49
2022/06/24 07:49:20;;;;;;;8.70;2.90;;;27.90;99.90;;;;;;5111187;28;20030;-56
2022/06/24 07:51:46;;;;;;;6.22;2.97;;;;;;;;;;5112088;28;20027;-53
2022/06/24 07:54:12;;;;;;;3.97;3.05;;;;;;;;;;5077894;28;20043;-54
2022/06/24 07:56:56;;;;;;;7.22;4.00;;;;;;;;;;5111265;28;20019;-57
2022/06/24 07:59:23;;;;;;;3.72;2.83;;;;;;;;;;5112238;28;20032;-53
2022/06/24 08:01:50;;;;;;;4.72;2.67;;;;;;;;;;5113353;28;20419;-53
2022/06/24 08:04:16;;;;;;;5.07;3.20;;;;;;;;;;5113331;28;20438;-53
2022/06/24 08:06:49;;;;;;;5.30;2.90;;;;;;;;;;5113418;28;20047;-56
2022/06/24 08:09:15;;;;;;;6.55;3.22;;;;;;;;;;5111032;28;20027;-55
2022/06/24 08:11:42;;;;;;;4.50;2.95;;;28.50;99.90;;;;;;5113301;28;20016;-51
2022/06/24 08:14:08;;;;;;;6.55;3.78;;;28.20;99.90;;;;;;5102769;28;20032;-54
2022/06/24 08:16:34;;;;;;;7.38;2.80;;;28.60;99.90;;;;;;5113389;28;20058;-52
2022/06/24 08:19:00;;;;;;;4.65;3.00;;;;;;;;;;5110633;28;20063;-51
2022/06/24 08:21:26;;;;;;;5.43;2.80;;;28.70;99.90;;;;;;5106301;28;20383;-52
2022/06/24 08:23:52;;;;;;;5.20;3.05;;;28.40;99.90;;;;;;5072922;28;20036;-51
2022/06/24 08:26:18;;;;;;;5.32;3.30;;;28.70;99.90;;;;;;5077378;28;20036;-51
2022/06/24 08:28:44;;;;;;;3.78;2.70;;;;;;;;;;5111250;28;20057;-51
2022/06/24 08:31:11;;;;;;;4.25;3.20;;;;;;;;;;5112908;28;20030;-51
2022/06/24 08:33:37;;;;;;;4.90;2.97;;;;;;;;;;5113514;28;20015;-48
2022/06/24 08:36:03;;;;;;;4.30;2.65;;;;;;;;;;5077058;28;20075;-51
2022/06/24 08:38:29;;;;;;;3.60;2.63;;;;;;;;;;5113454;28;20023;-51
2022/06/24 08:40:58;;;;;;;3.25;2.35;;;29.30;99.90;;;;;;5106843;28;20145;-51
2022/06/24 08:43:25;;;;;;;4.53;2.60;;;;;;;;;;5111084;28;20015;-51
2022/06/24 08:45:51;;;;;;;3.72;2.55;;;;;;;;;;5110745;28;20062;-52
2022/06/24 08:48:17;;;;;;;5.80;3.17;;;;;;;;;;5107372;28;20132;-52
2022/06/24 08:50:43;;;;;;;4.28;2.70;;;;;;;;;;5092349;28;20032;-51
2022/06/24 08:53:10;;;;;;;3.58;2.63;;;29.90;99.90;;;;;;5113450;28;20027;-51
2022/06/24 08:55:40;;;;;;;4.53;2.97;;;30.10;99.90;;;;;;5113607;28;20027;-52
2022/06/24 08:58:11;;;;;;;3.55;2.28;;;30.00;99.90;;;;;;5113338;28;20030;-52
2022/06/24 09:00:38;;;;;;;2.50;2.05;;;29.60;99.90;;;;;;5095339;28;20043;-52
2022/06/24 09:03:05;;;;;;;4.00;1.77;;;29.70;99.90;;;;;;5117569;28;20027;-51
2022/06/24 09:05:32;;;;;;;5.18;2.45;;;;;;;;;;5116374;27;20115;-53
2022/06/24 09:08:11;;;;;;;6.47;2.70;;;29.60;99.90;;;;;;5110845;27;20032;-49
2022/06/24 09:10:42;;;;;;;3.88;2.10;;;30.00;99.90;;;;;;5099564;28;20032;-52
2022/06/24 09:13:08;;;;;;;3.60;2.55;;;;;;;;;;5114434;28;20049;-51
2022/06/24 09:15:34;;;;;;;4.18;2.10;;;;;;;;;;5111907;28;20553;-53
2022/06/24 09:18:01;;;;;;;3.85;1.70;;;;;;;;;;5116811;28;20039;-58
2022/06/24 09:20:30;;;;;;;4.05;2.13;;;30.50;97.50;;;;;;5112001;27;20032;-52
2022/06/24 09:23:10;;;;;;;3.28;1.83;;;30.60;98.60;;;;;;5050079;28;20080;-48
2022/06/24 09:25:42;;;;;;;4.63;1.90;;;;;;;;;;5050536;28;20027;-53
2022/06/24 09:28:10;;;;;;;3.47;1.88;;;;;;;;;;5036032;28;20041;-55
2022/06/24 09:30:37;;;;;;;5.35;2.40;;;;;;;;;;5032379;28;20053;-57
2022/06/24 09:33:03;;;;;;;2.45;1.90;;;;;;;;;;5030865;28;20042;-51
2022/06/24 09:35:29;;;;;;;2.67;1.98;;;;;;;;;;4996184;28;20049;-56
2022/06/24 09:37:55;;;;;;;3.03;1.75;;;;;;;;;;5026530;28;20041;-59
2022/06/24 09:40:23;;;;;;;3.85;2.33;;;;;;;;;;4997926;28;20038;-49
2022/06/24 09:42:55;;;;;;;6.47;2.00;;;;;;;;;;5033697;28;20037;-52
2022/06/24 09:45:22;;;;;;;2.95;2.03;;;30.70;99.90;;;;;;4997660;28;20137;-51
2022/06/24 09:47:51;;;;;;;2.28;1.50;;;30.60;96.60;;;;;;4997256;28;20135;-52
2022/06/24 09:50:19;;;;;;;2.60;1.88;;;30.60;95.40;;;;;;5033961;28;20479;-51
2022/06/24 09:52:45;;;;;;;3.80;2.00;;;;;;;;;;5032269;28;20144;-52
2022/06/24 09:55:12;;;;;;;4.35;2.35;;;;;;;;;;5076025;28;20064;-51
2022/06/24 09:57:40;;;;;;;3.65;2.20;;;;;;;;;;5074407;28;20020;-52
2022/06/24 10:02:53;;;;;;;1.70;1.50;;;;;;;;;;5073514;28;20111;-51
2022/06/24 10:05:20;;;;;;;3.75;1.83;;;;;;;;;;5072947;28;20020;-51
2022/06/24 10:07:48;;;;;;;3.00;1.85;;;;;;;;;;5074564;28;20036;-52
2022/06/24 10:10:15;;;;;;;4.72;1.90;;;;;;;;;;5074713;28;20070;-52
2022/06/24 10:12:56;;;;;;;4.47;2.15;;;32.00;85.10;;;;;;5074761;28;20020;-51
2022/06/24 10:15:22;;;;;;;3.13;1.80;;;32.10;82.90;;;;;;5073646;28;20020;-51
2022/06/24 10:17:49;;;;;;;3.10;1.90;;;31.60;83.60;;;;;;5072772;28;20027;-51
2022/06/24 10:20:16;;;;;;;13.90;3.92;;;31.60;82.40;;;;;;5074519;28;20367;-51
2022/06/24 10:22:46;;;;;;;10.57;3.78;;;31.80;82.60;;;;;;5075046;28;20372;-51
2022/06/24 10:25:41;;;;;;;4.00;2.20;;;32.10;83.20;;;;;;5080989;28;20047;-52
2022/06/24 10:28:07;;;;;;;4.22;1.90;;;;;;;;;;5054086;28;20047;-54
2022/06/24 10:30:39;;;;;;;6.97;2.65;;;;;;;;;;5060144;28;20025;-55
2022/06/24 10:33:12;;;;;;;3.45;2.05;;;;;;;;;;5060249;28;20060;-56
2022/06/24 10:35:59;;;;;;;3.15;1.85;;;;;;;;;;5056300;28;20107;-58
2022/06/24 10:38:34;;;;;;;4.75;2.20;;;31.80;76.90;;;;;;5062704;28;20045;-54
2022/06/24 10:41:02;;;;;;;4.38;2.33;;;32.00;90.30;;;;;;5060121;28;20024;-53
2022/06/24 10:43:39;;;;;;;10.25;3.50;;;;;;;;;;5061480;28;20123;-56
2022/06/24 10:46:13;;;;;;;10.98;6.30;;;32.10;99.90;;;;;;5060311;28;20055;-55
2022/06/24 10:48:47;;;;;;;11.77;7.63;;;;;;;;;;5061042;28;20037;-57
2022/06/24 10:51:20;;;;;;;7.70;5.90;;;;;;;;;;5061966;28;20031;-56
2022/06/24 10:54:01;;;;;;;3.55;2.22;;;33.80;97.00;;;;;;5062044;28;20036;-57
2022/06/24 10:56:43;;;;;;;10.30;3.30;;;32.40;79.30;;;;;;5061406;28;20064;-56
2022/06/24 10:59:10;;;;;;;1.42;1.33;;;32.40;78.50;;;;;;5067752;28;20304;-56
2022/06/24 11:01:41;;;;;;;2.85;1.95;;;32.10;75.80;;;;;;5073779;28;20492;-58
2022/06/24 11:04:10;;;;;;;6.82;3.17;;;32.20;76.00;;;;;;5071277;28;20113;-55
2022/06/24 11:06:35;;;;;;;4.45;2.20;;;32.50;76.30;;;;;;5070344;28;20060;-55
2022/06/24 11:09:08;;;;;;;2.20;1.70;;;32.80;76.60;;;;;;5073362;28;20044;-56
2022/06/24 11:11:35;;;;;;;4.40;2.08;;;32.60;76.80;;;;;;5063599;28;20052;-56
2022/06/24 11:14:22;;;;;;;4.95;2.13;;;33.00;78.00;;;;;;5073442;28;20025;-56
2022/06/24 11:16:48;;;;;;;7.32;3.28;;;32.80;77.40;;;;;;5073519;28;20016;-57
2022/06/24 11:19:15;;;;;;;5.05;2.50;;;32.70;78.00;;;;;;5062861;28;20046;-54
2022/06/24 11:21:51;;;;;;;7.00;2.78;;;32.70;80.10;;;;;;5073550;28;20057;-58
2022/06/24 11:24:21;;;;;;;8.13;2.80;;;32.50;77.50;;;;;;5072593;28;20074;-59
2022/06/24 11:27:07;;;;;;;2.30;1.85;;;32.30;77.60;;;;;;5073744;28;20052;-57
2022/06/24 11:30:02;;;;;;;4.07;1.90;;;32.60;77.50;;;;;;5095417;28;20059;-58
2022/06/24 11:32:28;;;;;;;9.45;3.40;;;32.60;78.90;;;;;;5038023;28;20045;-56
2022/06/24 11:34:54;;;;;;;4.60;2.78;;;32.80;78.20;;;;;;5041375;28;20025;-56
2022/06/24 11:37:22;;;;;;;5.05;2.92;;;32.80;79.00;;;;;;5039794;28;20060;-55
2022/06/24 11:39:52;;;;;;;4.35;2.08;;;33.40;78.90;;;;;;5043214;28;20029;-55
2022/06/24 11:42:18;;;;;;;2.92;1.88;;;32.90;77.40;;;;;;5051513;28;20072;-58
2022/06/24 11:44:44;;;;;;;3.28;1.70;;;33.20;77.50;;;;;;5042236;28;20103;-55
2022/06/24 11:47:10;;;;;;;3.25;2.22;;;33.50;77.40;;;;;;5015067;28;20041;-57
2022/06/24 11:49:37;;;;;;;3.80;2.20;;;33.40;77.80;;;;;;5031633;28;20573;-58
2022/06/24 11:52:03;;;;;;;4.25;2.45;;;33.60;79.10;;;;;;5031436;28;20043;-58
2022/06/24 11:54:30;;;;;;;3.92;2.00;;;33.80;78.50;;;;;;5031643;28;20036;-56
2022/06/24 11:56:57;;;;;;;3.55;2.00;;;32.70;76.70;;;;;;4982439;28;20539;-58
2022/06/24 11:59:26;;;;;;;3.75;1.92;;;33.20;77.50;;;;;;5031424;28;20064;-57
2022/06/24 12:01:52;;;;;;;4.63;2.53;;;32.50;77.20;;;;;;5027511;28;20127;-55
2022/06/24 12:04:22;;;;;;;6.05;2.47;;;32.80;78.20;;;;;;5031131;28;20072;-58
2022/06/24 12:06:48;;;;;;;7.85;2.40;;;33.20;77.70;;;;;;5022979;28;20042;-57
2022/06/24 12:09:15;;;;;;;3.15;1.85;;;33.40;78.10;;;;;;5084100;28;20044;-56
2022/06/24 12:11:42;;;;;;;4.95;2.13;;;33.30;76.70;;;;;;5113796;28;20019;-55
2022/06/24 12:14:14;;;;;;;4.38;1.92;;;33.50;76.50;;;;;;5113214;28;20356;-56
2022/06/24 12:16:59;;;;;;;;;;;33.40;75.50;;;;;;5113317;28;20032;-55
2022/06/24 12:19:31;;;;;;;2.22;1.80;;;33.10;76.10;;;;;;5113777;28;19920;-56
2022/06/24 12:22:10;;;;;;;3.55;1.70;;;33.20;74.30;;;;;;5113735;28;20016;-55
2022/06/24 12:24:37;;;;;;;2.70;1.67;;;33.40;74.10;;;;;;5114027;28;20107;-56
2022/06/24 12:27:05;;;;;;;2.45;1.90;;;33.00;75.70;;;;;;5095024;28;20042;-56
2022/06/24 12:29:34;;;;;;;2.35;1.85;;;33.40;76.10;;;;;;5113619;28;20048;-55
2022/06/24 12:32:01;;;;;;;2.75;1.83;;;;;;;;;;5114017;28;20069;-56
2022/06/24 12:34:32;;;;;;;3.28;1.75;;;33.00;75.90;;;;;;5095411;28;20089;-55
2022/06/24 12:37:00;;;;;;;5.88;2.53;;;32.30;77.30;;;;;;5117930;28;20039;-55
2022/06/24 12:39:31;;;;;;;4.38;2.25;;;32.80;76.70;;;;;;5098938;28;20533;-55
2022/06/24 12:41:57;;;;;;;2.95;2.00;;;33.40;77.60;;;;;;5117885;28;20424;-55
2022/06/24 12:44:23;;;;;;;2.58;1.70;;;33.30;77.50;;;;;;5099689;28;20394;-55
2022/06/24 12:52:33;;;;;;;3.47;1.50;;;32.00;74.90;;;;;;5116861;28;20133;-55
2022/06/24 12:55:00;;;;;;;3.47;1.83;;;32.20;76.10;;;;;;5116054;28;20088;-55
2022/06/24 12:57:26;;;;;;;3.85;1.52;;;32.80;76.10;;;;;;5110106;27;20020;-59
2022/06/24 12:59:51;;;;;;;2.95;1.70;;;32.30;76.00;;;;;;5105488;27;20536;-55
2022/06/24 13:02:17;;;;;;;5.63;2.47;;;32.00;75.80;;;;;;5112798;28;20020;-54
2022/06/24 13:04:43;;;;;;;3.47;1.60;;;32.20;76.30;;;;;;5087987;28;20040;-55
2022/06/24 13:07:09;;;;;;;6.07;1.95;;;32.00;75.30;;;;;;5093727;28;20032;-52
2022/06/24 13:09:35;;;;;;;2.63;1.65;;;32.70;75.40;;;;;;5069077;28;20040;-54
2022/06/24 13:12:00;;;;;;;3.30;2.13;;;32.60;74.90;;;;;;5076026;28;20039;-54
2022/06/24 13:14:26;;;;;;;3.13;1.65;;;33.30;75.40;;;;;;5102221;28;20027;-57
2022/06/24 13:16:52;;;;;;;3.70;1.80;;;32.90;74.60;;;;;;5076703;28;20084;-50
2022/06/24 13:19:18;;;;;;;3.08;1.85;;;33.40;74.80;;;;;;5087170;28;20088;-49
2022/06/24 13:21:43;;;;;;;2.40;1.50;;;32.80;73.20;;;;;;5096571;28;20171;-50
2022/06/24 13:24:09;;;;;;;3.40;1.75;;;32.50;73.20;;;;;;5115628;28;20023;-52